Time;durP1;ratioP1;P1;durP2;ratioP2;P2;SDS_P1;SDS_P2;PMS_P1;PMS_P2;Temp;Humidity;BMP_temperature;BMP_pressure;BME280_temperature;BME280_humidity;BME280_pressure;Samples;Min_cycle;Max_cycle;Signal;HPM_P1;HPM_P2
2023/03/17 00:00:43;;;;;;;7.55;3.53;;;;;;;9.05;52.39;100344.25;4145018;28;20088;-68
2023/03/17 00:02:48;;;;;;;5.22;3.58;;;;;;;9.05;51.85;100345.16;4135992;28;20042;-68
2023/03/17 00:04:52;;;;;;;;;;;;;;;8.97;52.36;100338.06;4140740;28;20046;-68
2023/03/17 00:06:55;;;;;;;9.07;3.70;;;;;;;8.96;52.56;100333.72;4145522;28;20024;-68
2023/03/17 00:08:58;;;;;;;7.50;3.90;;;;;;;9.01;52.38;100327.78;4145979;28;20049;-68
2023/03/17 00:11:03;;;;;;;7.57;3.90;;;;;;;9.01;52.26;100327.78;4138804;28;20046;-68
2023/03/17 00:13:06;;;;;;;;;;;;;;;8.90;52.68;100329.28;4138393;28;20104;-68
2023/03/17 00:15:10;;;;;;;8.65;3.72;;;;;;;8.88;53.04;100336.19;4146588;28;20300;-69
2023/03/17 00:17:13;;;;;;;7.37;3.87;;;;;;;8.89;53.20;100336.22;4147647;28;20030;-68
2023/03/17 00:19:19;;;;;;;6.78;3.55;;;;;;;8.97;52.80;100335.47;4129741;28;20384;-68
2023/03/17 00:21:25;;;;;;;7.00;3.47;;;;;;;8.96;52.67;100329.41;4147491;28;20033;-69
2023/03/17 00:23:28;;;;;;;6.55;3.92;;;;;;;8.94;52.64;100318.16;4141367;28;20136;-69
2023/03/17 00:25:33;;;;;;;6.55;3.35;;;;;;;8.93;52.67;100313.78;4145702;28;20042;-69
2023/03/17 00:27:38;;;;;;;5.45;3.30;;;;;;;8.89;53.09;100322.34;4141903;28;20129;-69
2023/03/17 00:29:41;;;;;;;5.95;3.35;;;;;;;8.87;53.17;100321.47;4139048;28;20057;-69
2023/03/17 00:31:46;;;;;;;6.35;3.67;;;;;;;8.93;52.52;100312.94;4155064;28;20153;-69
2023/03/17 00:33:52;;;;;;;6.70;3.72;;;;;;;8.88;52.65;100320.63;4144591;28;20038;-68
2023/03/17 00:35:57;;;;;;;8.52;4.57;;;;;;;8.91;52.90;100331.06;4146679;28;20112;-69
2023/03/17 00:38:00;;;;;;;6.53;3.47;;;;;;;8.90;52.72;100324.13;4142905;28;20472;-68
2023/03/17 00:40:09;;;;;;;5.10;3.08;;;;;;;8.90;52.88;100318.94;4147296;28;20413;-68
2023/03/17 00:42:12;;;;;;;5.78;3.40;;;;;;;8.94;52.65;100325.94;4147898;28;20034;-68
2023/03/17 00:44:17;;;;;;;4.47;3.13;;;;;;;8.94;52.73;100325.94;4146700;28;20129;-68
2023/03/17 00:46:25;;;;;;;6.25;3.40;;;;;;;8.99;52.20;100326.00;4148016;28;20466;-68
2023/03/17 00:48:29;;;;;;;6.50;3.70;;;;;;;8.94;52.23;100325.94;4129503;28;20050;-68
2023/03/17 00:50:32;;;;;;;6.25;3.35;;;;;;;8.94;52.54;100320.75;4148004;28;20143;-68
2023/03/17 00:52:37;;;;;;;6.60;3.80;;;;;;;8.94;52.31;100318.16;4146074;28;20231;-68
2023/03/17 00:54:40;;;;;;;8.30;3.55;;;;;;;8.92;52.50;100322.41;4147032;28;20124;-68
2023/03/17 00:56:44;;;;;;;7.28;3.33;;;;;;;8.94;52.41;100310.38;4143615;28;20567;-68
2023/03/17 00:58:48;;;;;;;5.18;3.42;;;;;;;8.89;52.60;100305.09;4138474;28;20475;-68
2023/03/17 01:00:53;;;;;;;6.35;3.95;;;;;;;8.88;52.87;100316.31;4144343;28;20034;-68
2023/03/17 01:02:57;;;;;;;6.47;3.25;;;;;;;8.92;52.97;100312.03;4129133;28;20125;-68
2023/03/17 01:05:03;;;;;;;6.22;3.40;;;;;;;8.90;52.98;100311.16;4144491;28;20046;-68
2023/03/17 01:07:10;;;;;;;5.72;3.28;;;;;;;8.90;53.01;100309.41;4145275;28;20034;-68
2023/03/17 01:09:15;;;;;;;6.57;3.15;;;;;;;8.89;53.15;100302.50;4145161;28;20076;-68
2023/03/17 01:11:20;;;;;;;6.03;3.50;;;;;;;8.89;53.08;100309.41;4123261;28;20058;-68
2023/03/17 01:13:23;;;;;;;7.18;4.13;;;;;;;8.88;52.97;100305.06;4145615;28;20052;-68
2023/03/17 01:15:30;;;;;;;5.13;3.00;;;;;;;8.90;52.99;100303.38;4144721;28;20444;-67
2023/03/17 01:17:34;;;;;;;5.70;3.25;;;;;;;8.93;53.12;100298.25;4146577;28;20077;-68
2023/03/17 01:19:37;;;;;;;9.73;3.75;;;;;;;8.86;53.50;100280.81;4142231;28;20060;-68
2023/03/17 01:21:41;;;;;;;5.38;2.92;;;;;;;8.86;53.01;100291.19;4129111;28;20058;-68
2023/03/17 01:23:44;;;;;;;5.53;3.13;;;;;;;8.86;53.04;100291.19;4143670;28;20128;-68
2023/03/17 01:25:47;;;;;;;5.75;3.13;;;;;;;8.84;53.09;100288.56;4158818;28;20551;-68
2023/03/17 01:27:51;;;;;;;6.85;3.60;;;;;;;8.84;53.05;100287.72;4140348;28;20543;-68
2023/03/17 01:29:54;;;;;;;5.43;3.17;;;;;;;8.83;53.25;100281.63;4139219;28;20042;-68
2023/03/17 01:31:57;;;;;;;5.72;3.03;;;;;;;8.90;52.69;100275.72;4141706;28;20042;-68
2023/03/17 01:34:03;;;;;;;7.45;3.95;;;;;;;8.84;52.92;100274.75;4145962;28;20127;-68
2023/03/17 01:36:06;;;;;;;5.93;3.03;;;;;;;8.78;53.44;100272.06;4146477;28;20493;-67
2023/03/17 01:38:10;;;;;;;10.27;3.00;;;;;;;8.76;53.28;100265.94;4142447;28;20035;-68
2023/03/17 01:40:17;;;;;;;4.65;2.67;;;;;;;8.79;53.16;100258.22;4145300;28;20038;-69
2023/03/17 01:42:20;;;;;;;7.50;3.35;;;;;;;8.79;53.29;100263.41;4132918;28;20113;-68
2023/03/17 01:44:24;;;;;;;5.15;3.10;;;;;;;8.81;53.59;100247.03;4142360;28;20042;-68
2023/03/17 01:46:29;;;;;;;5.63;3.00;;;;;;;8.82;53.30;100245.31;4143988;28;20120;-68
2023/03/17 01:48:37;;;;;;;6.10;3.30;;;;;;;8.79;53.50;100240.97;4143256;28;20053;-68
2023/03/17 01:50:42;;;;;;;7.57;3.20;;;;;;;8.74;53.47;100246.06;4145117;28;20075;-68
2023/03/17 01:52:46;;;;;;;5.00;2.88;;;;;;;8.70;53.52;100246.88;4140958;28;20038;-68
2023/03/17 01:54:55;;;;;;;6.32;3.53;;;;;;;8.73;53.49;100246.03;4143939;28;20046;-67
2023/03/17 01:57:03;;;;;;;6.35;3.63;;;;;;;8.69;53.57;100252.03;4146072;28;20133;-68
2023/03/17 01:59:09;;;;;;;5.82;3.08;;;;;;;8.72;53.39;100249.50;4129003;28;20042;-68
2023/03/17 02:01:12;;;;;;;7.38;3.22;;;;;;;8.73;53.39;100251.22;4145178;28;20069;-68
2023/03/17 02:03:16;;;;;;;6.55;2.80;;;;;;;8.72;53.23;100250.34;4146560;28;20539;-68
2023/03/17 02:05:22;;;;;;;5.78;3.63;;;;;;;8.72;53.26;100247.75;4145778;28;20176;-68
2023/03/17 02:07:27;;;;;;;5.32;3.25;;;;;;;8.73;53.25;100244.31;4143849;28;20034;-68
2023/03/17 02:09:32;;;;;;;5.05;3.15;;;;;;;8.71;53.15;100246.00;4145527;28;20037;-68
2023/03/17 02:11:36;;;;;;;5.07;3.00;;;;;;;8.69;53.29;100245.13;4143751;28;20049;-68
2023/03/17 02:13:40;;;;;;;5.88;3.58;;;;;;;8.69;53.33;100242.53;4143743;28;20034;-68
2023/03/17 02:15:47;;;;;;;7.28;2.97;;;;;;;8.64;53.30;100241.53;4152464;28;20412;-68
2023/03/17 02:17:50;;;;;;;8.27;4.10;;;;;;;8.59;53.55;100250.09;4138659;28;20061;-68
2023/03/17 02:19:53;;;;;;;7.20;3.42;;;;;;;8.57;53.60;100252.63;4139464;28;20042;-68
2023/03/17 02:22:00;;;;;;;5.38;2.90;;;;;;;8.62;53.16;100244.97;4146463;28;20512;-68
2023/03/17 02:24:08;;;;;;;5.43;2.90;;;;;;;8.65;53.21;100245.91;4140500;28;20053;-68
2023/03/17 02:26:11;;;;;;;4.82;2.97;;;;;;;8.65;53.40;100245.03;4142848;28;20082;-68
2023/03/17 02:28:21;;;;;;;4.85;3.00;;;;;;;8.63;53.37;100239.81;4144541;28;20065;-68
2023/03/17 02:30:24;;;;;;;8.65;3.53;;;;;;;8.64;53.30;100251.91;4144677;28;20088;-68
2023/03/17 02:32:27;;;;;;;4.45;2.88;;;;;;;8.65;53.38;100256.25;4145418;28;20038;-69
2023/03/17 02:34:31;;;;;;;10.45;3.35;;;;;;;8.65;52.97;100256.25;4145693;28;20703;-68
2023/03/17 02:36:33;;;;;;;8.20;3.00;;;;;;;8.69;52.60;100247.72;4145007;28;20445;-68
2023/03/17 02:38:38;;;;;;;6.93;2.67;;;;;;;8.68;52.86;100245.94;4137927;28;20461;-68
2023/03/17 02:40:41;;;;;;;4.95;2.70;;;;;;;8.66;52.78;100241.56;4145612;28;20069;-68
2023/03/17 02:42:45;;;;;;;7.57;3.17;;;;;;;8.62;52.78;100245.84;4159832;28;20083;-68
2023/03/17 02:44:48;;;;;;;6.72;2.75;;;;;;;8.57;53.08;100244.88;4140290;28;20057;-68
2023/03/17 02:46:53;;;;;;;4.47;2.60;;;;;;;8.55;53.24;100244.84;4145516;28;20045;-68
2023/03/17 02:48:56;;;;;;;6.90;3.13;;;;;;;8.53;53.36;100235.31;4146276;28;20034;-68
2023/03/17 02:50:59;;;;;;;5.50;3.05;;;;;;;8.49;53.31;100236.09;4145207;28;20468;-68
2023/03/17 02:53:02;;;;;;;4.38;2.78;;;;;;;8.44;53.26;100233.44;4145812;28;20404;-68
2023/03/17 02:55:07;;;;;;;6.07;2.88;;;;;;;8.43;53.50;100223.88;4143279;28;20081;-68
2023/03/17 02:57:10;;;;;;;4.85;2.90;;;;;;;8.41;53.54;100222.09;4142398;28;20050;-68
2023/03/17 02:59:13;;;;;;;4.97;2.80;;;;;;;8.35;53.78;100212.47;4139857;28;20045;-68
2023/03/17 03:01:17;;;;;;;3.83;2.75;;;;;;;8.30;54.05;100222.75;4138492;28;20034;-68
2023/03/17 03:03:20;;;;;;;3.60;2.40;;;;;;;8.26;54.56;100225.25;4142914;28;20049;-68
2023/03/17 03:05:22;;;;;;;5.13;2.55;;;;;;;8.20;54.47;100221.69;4144172;28;20038;-68
2023/03/17 03:07:25;;;;;;;6.00;3.63;;;;;;;8.16;54.56;100222.50;4144199;28;20062;-68
2023/03/17 03:09:28;;;;;;;7.68;3.15;;;;;;;8.15;54.90;100233.69;4145905;28;20053;-68
2023/03/17 03:11:32;;;;;;;4.78;2.55;;;;;;;8.14;54.86;100231.06;4144660;28;20056;-68
2023/03/17 03:13:36;;;;;;;4.50;2.22;;;;;;;8.15;54.77;100232.81;4143342;28;20042;-68
2023/03/17 03:15:41;;;;;;;4.57;2.83;;;;;;;8.15;54.59;100230.22;4143351;28;20034;-68
2023/03/17 03:17:44;;;;;;;5.50;2.90;;;;;;;8.16;54.54;100226.78;4143994;28;20030;-68
2023/03/17 03:19:47;;;;;;;4.07;2.53;;;;;;;8.14;54.72;100229.34;4144670;28;20048;-68
2023/03/17 03:21:50;;;;;;;4.53;2.78;;;;;;;8.10;54.28;100239.59;4144888;28;20566;-68
2023/03/17 03:23:53;;;;;;;5.88;2.58;;;;;;;8.07;54.62;100242.13;4143831;28;20034;-67
2023/03/17 03:25:56;;;;;;;6.65;2.92;;;;;;;8.04;54.64;100241.25;4145095;28;20126;-68
2023/03/17 03:28:00;;;;;;;4.80;2.75;;;;;;;8.02;54.38;100227.38;4132912;28;20125;-68
2023/03/17 03:30:06;;;;;;;5.03;2.67;;;;;;;8.01;53.97;100233.38;4137951;28;20041;-68
2023/03/17 03:32:09;;;;;;;4.93;2.72;;;;;;;8.01;54.39;100215.25;4140011;28;20045;-68
2023/03/17 03:34:12;;;;;;;4.97;2.75;;;;;;;8.00;54.28;100207.47;4144314;28;20061;-68
2023/03/17 03:36:15;;;;;;;5.07;2.90;;;;;;;7.96;54.50;100209.13;4145635;28;20038;-68
2023/03/17 03:38:18;;;;;;;4.13;2.80;;;;;;;7.93;54.49;100224.59;4143419;28;20056;-68
2023/03/17 03:40:21;;;;;;;7.07;2.97;;;;;;;7.89;54.23;100225.38;4140557;28;20050;-68
2023/03/17 03:42:24;;;;;;;4.40;2.70;;;;;;;7.85;54.73;100236.50;4145430;28;20044;-68
2023/03/17 03:44:28;;;;;;;4.70;2.63;;;;;;;7.81;55.02;100237.25;4138780;28;20467;-68
2023/03/17 03:46:31;;;;;;;4.88;2.85;;;;;;;7.79;54.90;100232.06;4144971;28;20488;-68
2023/03/17 03:48:34;;;;;;;4.93;2.92;;;;;;;7.79;54.87;100219.13;4145224;28;20385;-68
2023/03/17 03:50:37;;;;;;;7.22;2.90;;;;;;;7.77;54.87;100225.09;4149977;28;20073;-68
2023/03/17 03:52:40;;;;;;;4.97;3.00;;;;;;;7.76;54.91;100223.38;4149644;28;20046;-68
2023/03/17 03:54:43;;;;;;;5.65;2.90;;;;;;;7.74;54.81;100231.09;4141236;28;20065;-68
2023/03/17 03:56:46;;;;;;;5.57;3.22;;;;;;;7.69;54.76;100232.69;4161255;28;20045;-68
2023/03/17 03:58:49;;;;;;;3.95;2.60;;;;;;;7.68;54.78;100225.75;4150848;28;20069;-68
2023/03/17 04:00:53;;;;;;;4.50;2.78;;;;;;;7.68;54.97;100218.00;4148649;28;20042;-67
2023/03/17 04:02:56;;;;;;;5.53;3.13;;;;;;;7.63;54.94;100222.22;4187531;23;20155;-66
2023/03/17 04:04:59;;;;;;;4.85;2.42;;;;;;;7.60;55.36;100220.44;4181032;28;20475;-66
2023/03/17 04:07:02;;;;;;;3.70;2.47;;;;;;;7.56;55.75;100223.78;4159815;28;20055;-66
2023/03/17 04:09:05;;;;;;;5.00;2.95;;;;;;;7.55;55.20;100224.63;4156211;28;20046;-66
2023/03/17 04:11:08;;;;;;;6.78;3.13;;;;;;;7.50;55.68;100229.72;4174020;28;20496;-66
2023/03/17 04:13:11;;;;;;;4.63;2.53;;;;;;;7.45;55.58;100225.28;4171794;28;20033;-66
2023/03/17 04:15:17;;;;;;;4.10;2.53;;;;;;;7.41;55.51;100234.66;4141031;28;20093;-66
2023/03/17 04:17:21;;;;;;;4.95;2.90;;;;;;;7.39;55.80;100225.09;4149059;28;20536;-66
2023/03/17 04:19:23;;;;;;;5.72;2.78;;;;;;;7.37;55.86;100222.47;4162424;28;20042;-66
2023/03/17 04:21:26;;;;;;;7.57;2.92;;;;;;;7.36;56.11;100217.28;4159998;28;20046;-66
2023/03/17 04:23:30;;;;;;;5.85;3.17;;;;;;;7.33;55.93;100216.38;4167107;28;20041;-66
2023/03/17 04:25:33;;;;;;;3.88;2.30;;;;;;;7.26;56.57;100218.78;4168535;28;20558;-66
2023/03/17 04:27:36;;;;;;;4.72;2.63;;;;;;;7.25;56.51;100223.06;4159603;28;20046;-66
2023/03/17 04:29:39;;;;;;;6.38;3.03;;;;;;;7.23;56.32;100227.34;4169439;28;20098;-66
2023/03/17 04:31:42;;;;;;;4.65;2.63;;;;;;;7.20;56.55;100226.38;4151416;28;20099;-66
2023/03/17 04:33:46;;;;;;;6.18;3.42;;;;;;;7.19;56.34;100224.66;4144282;28;20049;-66
2023/03/17 04:35:50;;;;;;;6.88;3.42;;;;;;;7.16;57.21;100225.44;4163439;28;20049;-66
2023/03/17 04:37:53;;;;;;;5.35;3.45;;;;;;;7.13;57.27;100227.97;4175424;28;20094;-65
2023/03/17 04:39:55;;;;;;;5.30;3.08;;;;;;;7.11;57.69;100227.03;4162663;28;20116;-66
2023/03/17 04:41:58;;;;;;;5.30;3.10;;;;;;;7.13;57.65;100222.78;4178826;28;20083;-66
2023/03/17 04:44:01;;;;;;;7.07;3.42;;;;;;;7.15;57.66;100228.88;4176137;28;20041;-66
2023/03/17 04:46:04;;;;;;;7.15;3.50;;;;;;;7.12;57.87;100218.44;4146293;28;20037;-67
2023/03/17 04:48:07;;;;;;;6.70;3.63;;;;;;;7.09;57.94;100213.22;4167986;28;20040;-67
2023/03/17 04:50:13;;;;;;;8.50;3.63;;;;;;;7.07;58.10;100205.41;4158216;28;20554;-68
2023/03/17 04:52:15;;;;;;;7.78;3.78;;;;;;;6.99;58.05;100206.94;4173496;28;20044;-68
2023/03/17 04:54:18;;;;;;;7.97;4.82;;;;;;;6.94;58.35;100214.56;4176495;28;20505;-67
2023/03/17 04:56:21;;;;;;;5.97;3.20;;;;;;;7.40;65.26;100226.88;4163617;28;20046;-66
2023/03/17 04:58:24;;;;;;;3.67;2.45;;;;;;;8.12;66.95;100218.09;4166517;28;20125;-65
2023/03/17 05:00:37;;;;;;;4.63;2.97;;;;;;;8.50;62.25;100219.72;4158540;28;20028;-70
2023/03/17 05:02:40;;;;;;;6.22;3.45;;;;;;;8.35;58.78;100231.50;4131515;28;20060;-69
2023/03/17 05:04:44;;;;;;;5.63;3.47;;;;;;;8.03;58.04;100244.66;4165478;28;20040;-70
2023/03/17 05:06:48;;;;;;;7.70;3.88;;;;;;;7.68;58.04;100251.63;4173082;28;20048;-70
2023/03/17 05:08:51;;;;;;;8.18;4.57;;;;;;;7.47;57.63;100254.63;4154573;28;20045;-70
2023/03/17 05:10:54;;;;;;;8.25;4.32;;;;;;;7.29;58.81;100258.50;4163282;28;21271;-69
2023/03/17 05:12:57;;;;;;;8.85;4.93;;;;;;;7.17;58.83;100253.06;4131550;28;20498;-69
2023/03/17 05:15:00;;;;;;;8.30;5.40;;;;;;;7.06;59.50;100251.91;4159888;28;20142;-70
2023/03/17 05:17:03;;;;;;;9.00;4.90;;;;;;;6.98;59.40;100252.59;4146851;28;20046;-70
2023/03/17 05:19:07;;;;;;;11.05;5.60;;;;;;;6.90;59.52;100254.09;4135921;28;20038;-70
2023/03/17 05:21:10;;;;;;;7.13;4.28;;;;;;;6.86;59.29;100261.72;4168713;28;20125;-70
2023/03/17 05:23:15;;;;;;;9.27;5.20;;;;;;;6.77;59.82;100259.78;4168745;28;20039;-70
2023/03/17 05:25:18;;;;;;;10.40;5.80;;;;;;;6.71;60.06;100254.47;4142138;28;20089;-70
2023/03/17 05:27:21;;;;;;;11.20;5.32;;;;;;;6.66;59.86;100251.75;4158240;28;20052;-70
2023/03/17 05:29:24;;;;;;;8.02;5.43;;;;;;;6.63;60.49;100256.84;4149129;28;20045;-70
2023/03/17 05:31:27;;;;;;;7.93;5.00;;;;;;;6.62;60.31;100250.78;4151875;28;20100;-70
2023/03/17 05:33:30;;;;;;;9.48;5.68;;;;;;;6.59;60.28;100248.13;4166082;28;20044;-70
2023/03/17 05:35:32;;;;;;;10.90;5.85;;;;;;;6.51;60.41;100257.38;4168558;28;20056;-70
2023/03/17 05:37:35;;;;;;;7.72;5.43;;;;;;;6.47;60.46;100258.13;4124825;28;20070;-71
2023/03/17 05:39:40;;;;;;;9.35;5.38;;;;;;;6.45;60.74;100264.94;4155679;28;20046;-70
2023/03/17 05:41:43;;;;;;;8.98;5.20;;;;;;;6.39;60.49;100263.06;4159336;28;20041;-71
2023/03/17 05:43:46;;;;;;;10.18;4.55;;;;;;;6.37;60.72;100263.88;4137724;28;20042;-71
2023/03/17 05:45:49;;;;;;;7.05;5.10;;;;;;;6.32;60.26;100271.47;4140648;28;20113;-70
2023/03/17 05:47:52;;;;;;;9.65;6.05;;;;;;;6.29;60.34;100274.88;4139739;28;20037;-71
2023/03/17 05:49:55;;;;;;;8.77;4.63;;;;;;;6.25;60.37;100269.53;4141155;28;20542;-71
2023/03/17 05:51:58;;;;;;;7.90;5.57;;;;;;;6.24;60.92;100275.56;4143554;28;20532;-70
2023/03/17 05:54:01;;;;;;;9.43;5.35;;;;;;;6.25;60.81;100273.03;4154623;28;20410;-71
2023/03/17 05:56:06;;;;;;;8.45;5.40;;;;;;;6.25;61.00;100272.13;4140555;28;20038;-71
2023/03/17 05:58:09;;;;;;;10.80;6.00;;;;;;;6.23;61.36;100274.66;4140144;28;20041;-70
2023/03/17 06:00:14;;;;;;;7.90;4.82;;;;;;;6.23;61.12;100269.50;4158941;28;20120;-71
2023/03/17 06:02:18;;;;;;;8.07;5.18;;;;;;;6.22;61.02;100275.50;4140157;28;20038;-70
2023/03/17 06:04:21;;;;;;;8.40;5.53;;;;;;;6.23;61.39;100271.22;4158516;28;20053;-71
2023/03/17 06:06:24;;;;;;;10.07;5.20;;;;;;;6.22;61.78;100272.94;4144897;28;20114;-71
2023/03/17 06:08:27;;;;;;;8.18;5.63;;;;;;;6.24;61.52;100272.97;4157195;28;20045;-72
2023/03/17 06:10:30;;;;;;;9.27;5.30;;;;;;;6.22;61.63;100269.47;4158151;28;20039;-71
2023/03/17 06:12:34;;;;;;;9.15;5.30;;;;;;;6.28;61.47;100273.09;4155448;28;20041;-71
2023/03/17 06:14:37;;;;;;;9.75;4.82;;;;;;;6.38;61.87;100271.66;4155618;28;20040;-71
2023/03/17 06:16:40;;;;;;;8.45;5.18;;;;;;;6.36;61.84;100256.97;4138879;28;20607;-71
2023/03/17 06:18:44;;;;;;;8.15;5.63;;;;;;;6.32;61.44;100257.69;4124087;28;20585;-71
2023/03/17 06:20:47;;;;;;;9.88;6.18;;;;;;;6.26;61.68;100256.72;4158218;28;20034;-71
2023/03/17 06:22:50;;;;;;;13.48;6.50;;;;;;;6.26;61.85;100261.88;4156904;28;20037;-70
2023/03/17 06:25:07;;;;;;;9.90;6.22;;;;;;;6.24;62.19;100266.09;4158185;28;20033;-71
2023/03/17 06:27:11;;;;;;;10.35;5.82;;;;;;;6.24;62.35;100262.66;4159400;28;20045;-71
2023/03/17 06:29:16;;;;;;;11.35;6.53;;;;;;;6.25;62.49;100262.69;4137047;28;20517;-71
2023/03/17 06:31:19;;;;;;;12.25;6.72;;;;;;;6.20;62.21;100264.25;4152156;28;20041;-71
2023/03/17 06:33:22;;;;;;;10.98;6.75;;;;;;;6.22;62.47;100260.03;4153229;28;20452;-71
2023/03/17 06:35:25;;;;;;;12.32;6.57;;;;;;;6.25;62.27;100262.69;4157289;28;20048;-71
2023/03/17 06:37:28;;;;;;;10.10;5.95;;;;;;;6.31;62.51;100264.56;4138086;28;21019;-71
2023/03/17 06:39:31;;;;;;;9.75;6.18;;;;;;;6.35;62.97;100275.84;4152723;28;20125;-71
2023/03/17 06:41:34;;;;;;;11.25;5.90;;;;;;;6.37;62.74;100282.81;4152546;28;20064;-71
2023/03/17 06:43:37;;;;;;;9.77;7.18;;;;;;;6.42;62.71;100278.63;4152407;28;20482;-71
2023/03/17 06:45:41;;;;;;;8.02;5.97;;;;;;;6.46;62.92;100272.72;4158633;28;20037;-71
2023/03/17 06:47:45;;;;;;;12.60;7.32;;;;;;;6.50;62.66;100268.53;4156181;28;20559;-70
2023/03/17 06:49:48;;;;;;;7.82;5.70;;;;;;;6.55;62.82;100269.53;4156901;28;20045;-71
2023/03/17 06:51:51;;;;;;;10.70;6.93;;;;;;;6.59;63.16;100273.09;4160087;28;20041;-71
2023/03/17 06:53:53;;;;;;;11.15;6.20;;;;;;;6.64;63.01;100281.81;4166703;28;20045;-71
2023/03/17 06:55:57;;;;;;;12.35;6.18;;;;;;;6.69;63.06;100280.25;4138243;28;20441;-70
2023/03/17 06:58:00;;;;;;;10.73;6.25;;;;;;;6.74;63.17;100288.13;4142162;28;20669;-71
2023/03/17 07:00:05;;;;;;;14.57;7.22;;;;;;;6.80;63.62;100283.09;4140585;28;20121;-68
2023/03/17 07:02:10;;;;;;;16.35;10.70;;;;;;;6.87;63.44;100279.84;4158636;28;20038;-73
2023/03/17 07:04:13;;;;;;;17.02;10.65;;;;;;;6.92;63.71;100277.38;4158576;28;20085;-71
2023/03/17 07:06:16;;;;;;;16.60;10.82;;;;;;;6.99;63.45;100282.78;4151131;28;20402;-72
2023/03/17 07:08:20;;;;;;;20.20;11.13;;;;;;;7.06;62.96;100285.50;4151677;28;21253;-72
2023/03/17 07:10:24;;;;;;;18.88;11.95;;;;;;;7.13;63.21;100284.84;4159781;28;20037;-72
2023/03/17 07:12:28;;;;;;;19.67;12.20;;;;;;;7.19;63.01;100286.69;4138259;28;20046;-73
2023/03/17 07:14:32;;;;;;;25.50;14.32;;;;;;;7.23;62.73;100285.91;4156356;28;20542;-73
2023/03/17 07:16:36;;;;;;;29.67;16.43;;;;;;;7.27;62.95;100278.31;4135543;28;20137;-72
2023/03/17 07:18:40;;;;;;;23.90;15.35;;;;;;;7.34;62.64;100271.53;4150341;28;20289;-72
2023/03/17 07:20:43;;;;;;;20.38;13.02;;;;;;;7.43;62.90;100270.91;4143049;28;20136;-73
2023/03/17 07:22:46;;;;;;;17.00;11.40;;;;;;;7.49;62.16;100265.84;4155106;28;20095;-73
2023/03/17 07:24:50;;;;;;;14.63;10.27;;;;;;;7.55;62.11;100266.03;4165132;28;20033;-73
2023/03/17 07:26:53;;;;;;;19.70;10.18;;;;;;;7.64;62.18;100274.00;4156397;28;20066;-73
2023/03/17 07:28:59;;;;;;;17.83;10.63;;;;;;;7.74;61.41;100272.50;4137185;28;20129;-73
2023/03/17 07:31:06;;;;;;;18.63;10.85;;;;;;;7.77;61.50;100269.97;4152833;28;20053;-72
2023/03/17 07:33:10;;;;;;;17.83;11.10;;;;;;;7.79;60.82;100275.19;4138460;28;20461;-72
2023/03/17 07:35:14;;;;;;;19.33;11.18;;;;;;;7.74;61.21;100269.00;4138285;28;20108;-72
2023/03/17 07:37:18;;;;;;;14.25;10.52;;;;;;;7.73;61.31;100267.28;4156175;28;20033;-72
2023/03/17 07:39:21;;;;;;;16.60;10.13;;;;;;;7.75;61.18;100274.22;4157653;28;20051;-72
2023/03/17 07:41:24;;;;;;;18.58;10.50;;;;;;;7.78;60.69;100276.00;4158157;28;20046;-73
2023/03/17 07:43:27;;;;;;;20.02;11.52;;;;;;;7.84;60.63;100281.31;4155607;28;20594;-72
2023/03/17 07:45:30;;;;;;;20.48;10.50;;;;;;;7.80;60.34;100282.97;4151968;28;20047;-72
2023/03/17 07:47:33;;;;;;;15.45;9.00;;;;;;;7.81;60.90;100279.56;4159395;28;20475;-72
2023/03/17 07:49:36;;;;;;;14.02;9.38;;;;;;;7.81;60.97;100289.03;4154830;28;20040;-73
2023/03/17 07:51:45;;;;;;;15.45;9.25;;;;;;;7.79;61.31;100290.72;4155458;28;20041;-73
2023/03/17 07:53:49;;;;;;;16.25;10.38;;;;;;;7.77;61.67;100295.84;4159057;28;20395;-73
2023/03/17 07:55:52;;;;;;;15.50;9.48;;;;;;;7.82;61.28;100290.78;4157939;28;20037;-73
2023/03/17 07:57:55;;;;;;;20.33;8.90;;;;;;;7.83;61.55;100290.81;4156211;28;20491;-73
2023/03/17 07:59:58;;;;;;;13.70;9.90;;;;;;;7.92;61.43;100292.72;4156657;28;20065;-72
2023/03/17 08:02:01;;;;;;;19.00;10.48;;;;;;;8.01;61.40;100292.91;4156053;28;20459;-72
2023/03/17 08:04:04;;;;;;;14.57;10.05;;;;;;;8.12;60.97;100300.03;4140035;28;20069;-73
2023/03/17 08:06:08;;;;;;;17.52;11.02;;;;;;;8.20;60.69;100295.91;4155589;28;20064;-73
2023/03/17 08:08:12;;;;;;;19.73;10.93;;;;;;;8.42;59.76;100297.22;4139725;28;20091;-72
2023/03/17 08:10:15;;;;;;;18.60;13.13;;;;;;;8.48;59.35;100284.44;4157465;28;20052;-73
2023/03/17 08:12:18;;;;;;;21.35;11.70;;;;;;;8.47;59.36;100285.28;4136378;28;20084;-72
2023/03/17 08:14:21;;;;;;;18.33;10.40;;;;;;;8.51;59.02;100281.03;4153011;28;20053;-73
2023/03/17 08:16:25;;;;;;;18.25;10.60;;;;;;;8.53;60.13;100279.38;4155994;28;20450;-72
2023/03/17 08:18:28;;;;;;;17.63;9.25;;;;;;;8.64;59.60;100261.41;4159367;28;20072;-72
2023/03/17 08:20:31;;;;;;;13.77;7.82;;;;;;;8.68;59.04;100256.31;4157827;28;20132;-73
2023/03/17 08:22:34;;;;;;;11.88;7.70;;;;;;;8.76;58.58;100264.25;4157471;28;20060;-72
2023/03/17 08:24:41;;;;;;;13.23;7.63;;;;;;;8.81;58.66;100264.34;4140249;28;20045;-73
2023/03/17 08:26:47;;;;;;;11.48;7.70;;;;;;;8.86;59.01;100252.31;4154263;28;20394;-74
2023/03/17 08:28:51;;;;;;;14.55;7.43;;;;;;;8.92;57.82;100265.38;4155750;28;20045;-74
2023/03/17 08:30:54;;;;;;;9.80;7.05;;;;;;;9.06;57.72;100263.91;4155210;28;20459;-74
2023/03/17 08:32:57;;;;;;;8.68;5.70;;;;;;;9.16;57.13;100258.88;4152082;28;20061;-73
2023/03/17 08:35:01;;;;;;;9.48;5.65;;;;;;;9.24;56.95;100262.47;4155223;28;20041;-73
2023/03/17 08:37:05;;;;;;;10.65;5.63;;;;;;;9.33;57.09;100257.44;4159062;28;20125;-74
2023/03/17 08:39:09;;;;;;;11.02;6.82;;;;;;;9.45;56.41;100254.16;4142733;28;20042;-74
2023/03/17 08:41:17;;;;;;;8.50;5.95;;;;;;;9.54;56.29;100262.06;4157004;28;20052;-74
2023/03/17 08:43:20;;;;;;;10.40;6.68;;;;;;;9.61;55.64;100260.47;4165051;28;20044;-74
2023/03/17 08:45:23;;;;;;;8.98;5.72;;;;;;;9.68;55.95;100258.81;4142911;28;20129;-73
2023/03/17 08:47:26;;;;;;;10.05;5.60;;;;;;;9.76;55.78;100258.06;4161255;28;20099;-74
2023/03/17 08:49:38;;;;;;;10.10;5.72;;;;;;;9.93;54.11;100250.53;4157575;28;20069;-74
2023/03/17 08:51:41;;;;;;;8.60;5.65;;;;;;;9.98;54.13;100252.31;4146318;28;20390;-74
2023/03/17 08:53:44;;;;;;;9.43;6.05;;;;;;;10.08;54.00;100242.06;4158406;28;20052;-74
2023/03/17 08:55:47;;;;;;;9.93;6.13;;;;;;;10.22;54.38;100237.03;4159747;28;20026;-73
2023/03/17 08:57:52;;;;;;;7.40;5.50;;;;;;;10.30;53.01;100244.91;4152486;28;20486;-74
2023/03/17 08:59:56;;;;;;;11.50;5.50;;;;;;;10.40;53.74;100233.81;4160434;28;20030;-74
2023/03/17 09:01:59;;;;;;;7.35;5.50;;;;;;;10.57;53.80;100239.19;4132576;28;20120;-74
2023/03/17 09:04:02;;;;;;;11.98;6.07;;;;;;;10.71;54.46;100235.88;4160318;28;20520;-73
2023/03/17 09:06:06;;;;;;;9.88;5.63;;;;;;;10.83;54.00;100228.16;4146199;28;20046;-74
2023/03/17 09:08:10;;;;;;;;;;;;;;;10.90;53.82;100221.31;4164769;28;20037;-74
2023/03/17 09:10:15;;;;;;;9.50;5.00;;;;;;;10.90;52.66;100221.31;4150113;28;19969;-75
2023/03/17 09:12:18;;;;;;;7.97;5.07;;;;;;;10.94;53.07;100216.16;4144328;28;20065;-74
2023/03/17 09:14:23;;;;;;;6.93;4.28;;;;;;;10.99;53.47;100217.06;4160663;28;20092;-74
2023/03/17 09:16:27;;;;;;;9.38;5.10;;;;;;;11.01;52.08;100224.88;4151170;28;20527;-74
2023/03/17 09:18:31;;;;;;;7.93;4.35;;;;;;;11.00;51.68;100217.94;4176420;28;20048;-75
2023/03/17 09:20:35;;;;;;;8.88;4.47;;;;;;;10.96;52.68;100210.94;4173572;28;20407;-74
2023/03/17 09:22:38;;;;;;;6.35;4.22;;;;;;;11.09;53.17;100211.94;4164271;28;20038;-74
2023/03/17 09:24:40;;;;;;;8.13;4.32;;;;;;;11.11;52.39;100207.59;4160344;28;20407;-74
2023/03/17 09:26:43;;;;;;;7.97;4.30;;;;;;;11.18;51.92;100212.88;4152297;28;20062;-74
2023/03/17 09:28:46;;;;;;;6.60;3.85;;;;;;;11.30;51.77;100201.69;4151834;28;20044;-74
2023/03/17 09:30:51;;;;;;;5.30;3.50;;;;;;;11.41;51.71;100190.47;4146423;28;20100;-75
2023/03/17 09:32:54;;;;;;;8.70;3.95;;;;;;;11.53;51.18;100195.75;4149694;28;20103;-74
2023/03/17 09:34:58;;;;;;;5.32;3.58;;;;;;;11.60;51.38;100199.28;4163320;28;20492;-74
2023/03/17 09:37:01;;;;;;;8.38;3.58;;;;;;;11.76;50.19;100189.81;4164948;28;20037;-74
2023/03/17 09:39:04;;;;;;;7.60;3.50;;;;;;;11.91;49.23;100189.00;4143224;28;20769;-75